createdAt,value
2019-01-27T00:02:32.994Z,5.1
2019-01-27T00:12:36.396Z,5.2
2019-01-27T00:22:39.839Z,5.1
2019-01-27T00:32:43.261Z,5.1
2019-01-27T00:42:46.682Z,5.1
2019-01-27T00:52:50.131Z,5
2019-01-27T01:02:53.537Z,4.9
2019-01-27T01:12:56.938Z,4.8
2019-01-27T01:23:00.369Z,4.8
2019-01-27T01:33:03.787Z,4.9
2019-01-27T01:43:07.178Z,5.1
2019-01-27T01:53:10.614Z,5.2
2019-01-27T02:03:14.008Z,5
2019-01-27T02:13:17.422Z,5.1
2019-01-27T02:23:20.848Z,5.1
2019-01-27T02:33:24.262Z,5
2019-01-27T02:43:27.692Z,4.6
2019-01-27T02:53:31.088Z,4.9
2019-01-27T03:03:34.534Z,4.8
2019-01-27T03:13:37.948Z,4.7
2019-01-27T03:23:41.395Z,5.1
2019-01-27T03:33:44.814Z,5.3
2019-01-27T03:43:48.246Z,4.9
2019-01-27T03:53:51.641Z,5.2
2019-01-27T04:03:55.093Z,5.3
2019-01-27T04:13:58.549Z,5.3
2019-01-27T04:24:02.004Z,5.4
2019-01-27T04:34:05.412Z,5.3
2019-01-27T04:44:08.814Z,5.2
2019-01-27T04:54:12.201Z,5
2019-01-27T05:04:16.453Z,5.1
2019-01-27T05:14:19.921Z,5
2019-01-27T05:24:23.315Z,5
2019-01-27T05:34:26.706Z,5
2019-01-27T05:44:30.159Z,4.8
2019-01-27T05:54:33.584Z,4.8
2019-01-27T06:04:37.033Z,4.8
2019-01-27T06:14:40.477Z,5
2019-01-27T06:24:43.890Z,5
2019-01-27T06:34:47.338Z,5
2019-01-27T06:44:50.757Z,4.4
2019-01-27T06:54:54.156Z,4.6
2019-01-27T07:04:57.591Z,4.4
2019-01-27T07:15:01.016Z,4.3
2019-01-27T07:25:04.427Z,4.1
2019-01-27T07:35:07.823Z,3.9
2019-01-27T07:45:11.196Z,4.3
2019-01-27T07:55:14.610Z,4.6
2019-01-27T08:05:18.063Z,5.1
2019-01-27T08:15:21.509Z,5.3
2019-01-27T08:25:24.903Z,5.3
2019-01-27T08:35:28.329Z,5.2
2019-01-27T08:45:31.753Z,5.1
2019-01-27T08:55:35.195Z,5.4
2019-01-27T09:05:38.579Z,5.1
2019-01-27T09:15:42.023Z,5.1
2019-01-27T09:25:45.454Z,5.4
2019-01-27T09:35:48.848Z,5.7
2019-01-27T09:46:04.991Z,6.2
2019-01-27T09:56:15.054Z,6.8
2019-01-27T10:06:18.454Z,6.7
2019-01-27T10:16:21.873Z,6.7
2019-01-27T10:26:25.293Z,8.1
2019-01-27T10:36:28.733Z,7.8
2019-01-27T10:46:32.129Z,7.8
2019-01-27T10:56:35.565Z,8.2
2019-01-27T11:06:38.964Z,7.8
2019-01-27T11:16:42.378Z,7.6
2019-01-27T11:26:45.816Z,8.1
2019-01-27T11:36:49.246Z,8.1
2019-01-27T11:46:52.663Z,7.5
2019-01-27T11:56:56.092Z,7.3
2019-01-27T12:06:59.547Z,7.4
2019-01-27T12:17:02.946Z,7.4
2019-01-27T12:27:06.340Z,7.2
2019-01-27T12:37:09.729Z,7
2019-01-27T12:47:13.109Z,7.4
2019-01-27T12:57:16.540Z,7.7
2019-01-27T13:07:19.945Z,7.8
2019-01-27T13:17:23.382Z,7.9
2019-01-27T13:27:26.817Z,8.1
2019-01-27T13:37:30.337Z,8
2019-01-27T13:47:33.732Z,7.9
2019-01-27T13:57:37.135Z,8.2
2019-01-27T14:07:40.570Z,8.1
2019-01-27T14:17:44.007Z,8.3
2019-01-27T14:27:47.453Z,8.3
2019-01-27T14:37:51.073Z,8.1
2019-01-27T14:47:54.657Z,8.2
2019-01-27T14:57:58.101Z,8
2019-01-27T15:08:01.525Z,7.9
2019-01-27T15:18:04.952Z,7.7
2019-01-27T15:28:08.402Z,7.7
2019-01-27T15:38:11.835Z,7.6
2019-01-27T15:48:15.244Z,7.4
2019-01-27T15:58:18.692Z,7.5
2019-01-27T16:08:22.115Z,7.7
2019-01-27T16:18:25.538Z,7.4
2019-01-27T16:28:28.924Z,7.4
2019-01-27T16:38:32.319Z,7.4
2019-01-27T16:48:35.777Z,7.6
2019-01-27T16:58:39.174Z,7.1
2019-01-27T17:08:42.615Z,7.2
2019-01-27T17:18:46.056Z,7.3
2019-01-27T17:28:49.470Z,7.1
2019-01-27T17:38:52.870Z,6.3
2019-01-27T17:48:56.282Z,6.2
2019-01-27T17:58:59.677Z,6.6
2019-01-27T18:09:03.110Z,6.8
2019-01-27T18:19:06.534Z,6.2
2019-01-27T18:29:10.214Z,6.2
2019-01-27T18:39:13.927Z,6
2019-01-27T18:49:17.420Z,6
2019-01-27T18:59:20.866Z,5.8
2019-01-27T19:09:24.290Z,5.7
2019-01-27T19:19:29.495Z,5.7
2019-01-27T19:29:33.161Z,5.9
2019-01-27T19:39:36.595Z,6.1
2019-01-27T19:49:40.078Z,6
2019-01-27T19:59:43.486Z,5.9
2019-01-27T20:09:46.955Z,5.9
2019-01-27T20:19:50.425Z,6
2019-01-27T20:29:53.822Z,5.7
2019-01-27T20:39:57.214Z,5.9
2019-01-27T20:50:00.618Z,6.1
2019-01-27T21:00:04.078Z,5.8
2019-01-27T21:10:12.359Z,5.6
2019-01-27T21:20:15.941Z,6
2019-01-27T21:30:19.349Z,5.7
2019-01-27T21:40:22.792Z,5.4
2019-01-27T21:50:26.283Z,5.8
2019-01-27T22:00:29.709Z,5.7
2019-01-27T22:10:33.120Z,5.8
2019-01-27T22:20:42.049Z,5.2
2019-01-27T22:30:45.459Z,4.8
2019-01-27T22:40:48.894Z,4.5
2019-01-27T22:50:52.331Z,4.2
2019-01-27T23:00:55.743Z,3.8
2019-01-27T23:10:59.147Z,3.6
2019-01-27T23:21:02.598Z,3.9
2019-01-27T23:31:06.040Z,3.9
2019-01-27T23:41:09.473Z,4.2
2019-01-27T23:51:12.927Z,4
